La Grande, OR

8:54 AM PST on January 28, 2015 (GMT -0800)
APRSWXNET La Grande OR US | Change Station
CLOSE
Current Station
Personal Weather Station
Location: La Grande, OR
Elevation: 2795 ft
Nearby Weather Stations

Elev 2795 ft 45.33 °N, 118.10 °W | Updated 28 minutes ago

Overcast
Overcast
40 °F
Feels Like 40 °F
N
0
Wind Variable Wind from North
Gusts 0.0 mph

Today
High -- | Low -- °F
--% Chance of Precip.
Yesterday
High -- | Low -- °F
Precip. -- in
7:18 AM 4:53 PM
Waxing Gibbous, 66% visible
Pressure 30.33 in
Visibility 10.0 miles
Clouds Overcast 5000 ft
Windchill 40 °F
Dew Point 36 °F
Humidity 84%
Rainfall 0.00 in
Snow Depth Not available.
UV 0 out of 12
Pollen 2.80 out of 12
Air Quality Not available.
Flu Activity Not available.
METAR KLGD 281635Z AUTO 00000KT 10SM OVC050 05/00 A3033 RMK AO1

More Conditions Fewer Conditions

Pressure 30.33 in
Visibility 10.0 miles
Clouds Overcast 5000 ft
Windchill 40 °F
Dew Point 36 °F
Humidity 84%
Rainfall 0.00 in
Snow Depth Not available.
UV 0 out of 12
Pollen 2.80 out of 12
Air Quality Not available.
Flu Activity Not available.
METAR KLGD 281635Z AUTO 00000KT 10SM OVC050 05/00 A3033 RMK AO1

More Conditions Fewer Conditions

10-Day Weather Forecast

Almanac

Astronomy

Jan. 28, 2015 Rise Set
Actual Time
Civil Twilight
Nautical Twilight
Astronomical Twilight
Moon
Length of Visible Light
Length of Day
Tomorrow will be .
, % of the Moon is Illuminated

Today's Extremes

State Highs State Lows

Community

WunderPhotos

Upload Photos

1,791,197 photos uploaded!

WunderBlogs® & News

Nearby

Air Quality

  Air Quality AQ Index Pollutant
Not available.

Snow Depth

Station Depth Elevation

Earthquake Activity

City Distance Mag. Time & Date
Minimum magnitude displayed is 2.5.

Coastal Water Temperatures

Place Temperature

Nearby Weather Stations